HESG

Sohag Airport

Sohag, Egypt
METAR HESG 181400Z 33007KT CAVOK 20/05 Q1016 NOSIG
Observed Flight Rules
Jan-18 @ 14:00 UTC (an hour ago) Visual Flight Rules
Wind Visibility Clouds
330° at 7 knots 10,000+ meters
  • Clear skies
Temperatures Readings
Current 20°C / 68°F
Dewpoint 5°C / 41°F
Humidity 38%
Altimeter 30" Hg
Pressure 1016 hPa
Elevation 70
METAR HESG 181400Z 33007KT CAVOK 20/05 Q1016 NOSIG
Observed Flight Rules
Jan-18 @ 14:00 UTC
(an hour ago)
VFR
Wind Visibility
330° at 7 knots 10,000+ meters
Clouds
  • Clear skies
Temperature Dewpoint
20°C / 68°F 5°C / 41°F
Humidity Altimeter Pressure
38% 30" Hg 1016 hPa